sensor_id;sensor_type;location;lat;lon;timestamp;pressure;altitude;pressure_sealevel;temperature;humidity
11672;BME280;5892;43.412;24.612;2023-09-19T00:02:04;100283.13;;;16.79;85.60
11672;BME280;5892;43.412;24.612;2023-09-19T00:04:35;100282.78;;;16.81;85.06
11672;BME280;5892;43.412;24.612;2023-09-19T00:07:05;100282.44;;;16.82;85.52
11672;BME280;5892;43.412;24.612;2023-09-19T00:09:33;100277.22;;;16.81;86.70
11672;BME280;5892;43.412;24.612;2023-09-19T00:12:03;100278.91;;;16.70;87.90
11672;BME280;5892;43.412;24.612;2023-09-19T00:14:31;100278.47;;;16.68;88.79
11672;BME280;5892;43.412;24.612;2023-09-19T00:16:59;100276.16;;;16.58;89.40
11672;BME280;5892;43.412;24.612;2023-09-19T00:19:31;100271.38;;;16.42;89.76
11672;BME280;5892;43.412;24.612;2023-09-19T00:21:59;100267.16;;;16.33;90.68
11672;BME280;5892;43.412;24.612;2023-09-19T00:24:27;100268.38;;;16.35;90.80
11672;BME280;5892;43.412;24.612;2023-09-19T00:26:54;100263.34;;;16.25;91.73
11672;BME280;5892;43.412;24.612;2023-09-19T00:29:21;100259.69;;;16.21;92.46
11672;BME280;5892;43.412;24.612;2023-09-19T00:31:49;100264.41;;;16.21;92.60
11672;BME280;5892;43.412;24.612;2023-09-19T00:34:16;100272.34;;;16.22;92.48
11672;BME280;5892;43.412;24.612;2023-09-19T00:36:43;100265.31;;;16.25;92.46
11672;BME280;5892;43.412;24.612;2023-09-19T00:39:11;100273.13;;;16.23;92.59
11672;BME280;5892;43.412;24.612;2023-09-19T00:41:38;100267.97;;;16.21;92.62
11672;BME280;5892;43.412;24.612;2023-09-19T00:44:06;100254.31;;;16.00;93.40
11672;BME280;5892;43.412;24.612;2023-09-19T00:46:34;100280.00;;;15.89;94.62
11672;BME280;5892;43.412;24.612;2023-09-19T00:49:02;100278.03;;;15.77;95.07
11672;BME280;5892;43.412;24.612;2023-09-19T00:51:29;100266.06;;;15.85;94.89
11672;BME280;5892;43.412;24.612;2023-09-19T00:53:56;100273.75;;;15.92;94.63
11672;BME280;5892;43.412;24.612;2023-09-19T00:56:26;100267.56;;;15.95;94.32
11672;BME280;5892;43.412;24.612;2023-09-19T00:58:53;100266.66;;;15.91;94.20
11672;BME280;5892;43.412;24.612;2023-09-19T01:01:20;100265.72;;;15.87;94.67
11672;BME280;5892;43.412;24.612;2023-09-19T01:03:47;100259.84;;;15.88;95.02
11672;BME280;5892;43.412;24.612;2023-09-19T01:06:16;100266.75;;;15.94;95.01
11672;BME280;5892;43.412;24.612;2023-09-19T01:08:43;100263.19;;;15.94;94.22
11672;BME280;5892;43.412;24.612;2023-09-19T01:11:14;100268.13;;;15.88;93.74
11672;BME280;5892;43.412;24.612;2023-09-19T01:13:56;100248.91;;;15.80;93.84
11672;BME280;5892;43.412;24.612;2023-09-19T01:16:32;100236.81;;;15.72;93.90
11672;BME280;5892;43.412;24.612;2023-09-19T01:19:24;100256.16;;;15.84;94.24
11672;BME280;5892;43.412;24.612;2023-09-19T01:22:05;100260.97;;;15.87;93.93
11672;BME280;5892;43.412;24.612;2023-09-19T01:25:16;100259.75;;;15.85;94.56
11672;BME280;5892;43.412;24.612;2023-09-19T01:28:05;100199.28;;;15.47;94.86
11672;BME280;5892;43.412;24.612;2023-09-19T01:30:35;100252.59;;;15.72;95.87
11672;BME280;5892;43.412;24.612;2023-09-19T01:33:06;100256.50;;;15.71;96.18
11672;BME280;5892;43.412;24.612;2023-09-19T01:35:33;100245.25;;;15.63;97.17
11672;BME280;5892;43.412;24.612;2023-09-19T01:38:04;100244.91;;;15.53;98.20
11672;BME280;5892;43.412;24.612;2023-09-19T01:40:35;100244.66;;;15.58;98.50
11672;BME280;5892;43.412;24.612;2023-09-19T01:43:09;100243.59;;;15.50;99.25
11672;BME280;5892;43.412;24.612;2023-09-19T01:45:46;100248.66;;;15.48;99.92
11672;BME280;5892;43.412;24.612;2023-09-19T01:48:23;100255.41;;;15.39;100.00
11672;BME280;5892;43.412;24.612;2023-09-19T01:50:58;100255.31;;;15.35;100.00
11672;BME280;5892;43.412;24.612;2023-09-19T01:53:27;100257.41;;;15.38;100.00
11672;BME280;5892;43.412;24.612;2023-09-19T01:55:57;100255.75;;;15.25;100.00
11672;BME280;5892;43.412;24.612;2023-09-19T01:58:29;100262.09;;;15.25;100.00
11672;BME280;5892;43.412;24.612;2023-09-19T02:01:01;100258.63;;;15.16;100.00
11672;BME280;5892;43.412;24.612;2023-09-19T02:03:31;100269.78;;;15.20;100.00
11672;BME280;5892;43.412;24.612;2023-09-19T02:06:00;100273.47;;;15.12;100.00
11672;BME280;5892;43.412;24.612;2023-09-19T02:08:28;100273.69;;;15.07;100.00
11672;BME280;5892;43.412;24.612;2023-09-19T02:10:59;100275.88;;;15.13;100.00
11672;BME280;5892;43.412;24.612;2023-09-19T02:13:26;100273.34;;;15.20;100.00
11672;BME280;5892;43.412;24.612;2023-09-19T02:15:54;100277.38;;;15.11;100.00
11672;BME280;5892;43.412;24.612;2023-09-19T02:18:22;100260.44;;;15.00;100.00
11672;BME280;5892;43.412;24.612;2023-09-19T02:20:49;100278.47;;;14.98;100.00
11672;BME280;5892;43.412;24.612;2023-09-19T02:23:18;100279.47;;;14.81;100.00
11672;BME280;5892;43.412;24.612;2023-09-19T02:25:52;100278.28;;;14.70;100.00
11672;BME280;5892;43.412;24.612;2023-09-19T02:28:19;100281.84;;;14.70;100.00
11672;BME280;5892;43.412;24.612;2023-09-19T02:30:47;100282.81;;;14.66;100.00
11672;BME280;5892;43.412;24.612;2023-09-19T02:33:16;100275.16;;;14.71;100.00
11672;BME280;5892;43.412;24.612;2023-09-19T02:35:45;100263.53;;;14.66;100.00
11672;BME280;5892;43.412;24.612;2023-09-19T02:38:13;100263.47;;;14.74;100.00
11672;BME280;5892;43.412;24.612;2023-09-19T02:40:43;100261.63;;;14.78;100.00
11672;BME280;5892;43.412;24.612;2023-09-19T02:43:10;100260.94;;;14.81;100.00
11672;BME280;5892;43.412;24.612;2023-09-19T02:45:37;100268.97;;;14.74;100.00
11672;BME280;5892;43.412;24.612;2023-09-19T02:48:05;100260.34;;;14.76;100.00
11672;BME280;5892;43.412;24.612;2023-09-19T02:50:32;100266.81;;;14.80;100.00
11672;BME280;5892;43.412;24.612;2023-09-19T02:53:01;100235.50;;;14.64;100.00
11672;BME280;5892;43.412;24.612;2023-09-19T02:55:30;100241.72;;;14.73;100.00
11672;BME280;5892;43.412;24.612;2023-09-19T02:57:57;100234.81;;;14.67;100.00
11672;BME280;5892;43.412;24.612;2023-09-19T03:00:24;100235.63;;;14.67;100.00
11672;BME280;5892;43.412;24.612;2023-09-19T03:02:54;100250.81;;;14.73;100.00
11672;BME280;5892;43.412;24.612;2023-09-19T03:05:22;100245.41;;;14.77;100.00
11672;BME280;5892;43.412;24.612;2023-09-19T03:07:50;100252.44;;;14.74;100.00
11672;BME280;5892;43.412;24.612;2023-09-19T03:10:19;100251.84;;;14.69;100.00
11672;BME280;5892;43.412;24.612;2023-09-19T03:12:46;100207.25;;;14.46;100.00
11672;BME280;5892;43.412;24.612;2023-09-19T03:15:14;100243.84;;;14.55;100.00
11672;BME280;5892;43.412;24.612;2023-09-19T03:17:43;100234.91;;;14.58;100.00
11672;BME280;5892;43.412;24.612;2023-09-19T03:20:11;100242.91;;;14.51;100.00
11672;BME280;5892;43.412;24.612;2023-09-19T03:22:39;100239.47;;;14.54;100.00
11672;BME280;5892;43.412;24.612;2023-09-19T03:25:07;100237.16;;;14.44;100.00
11672;BME280;5892;43.412;24.612;2023-09-19T03:27:37;100249.16;;;14.39;100.00
11672;BME280;5892;43.412;24.612;2023-09-19T03:30:05;100240.34;;;14.46;100.00
11672;BME280;5892;43.412;24.612;2023-09-19T03:32:34;100238.13;;;14.39;100.00
11672;BME280;5892;43.412;24.612;2023-09-19T03:35:01;100236.25;;;14.31;100.00
11672;BME280;5892;43.412;24.612;2023-09-19T03:37:31;100246.97;;;14.24;100.00
11672;BME280;5892;43.412;24.612;2023-09-19T03:39:59;100231.34;;;14.16;100.00
11672;BME280;5892;43.412;24.612;2023-09-19T03:42:30;100216.66;;;14.04;100.00
11672;BME280;5892;43.412;24.612;2023-09-19T03:44:58;100228.25;;;14.18;100.00
11672;BME280;5892;43.412;24.612;2023-09-19T03:47:31;100238.31;;;14.14;100.00
11672;BME280;5892;43.412;24.612;2023-09-19T03:49:58;100235.22;;;14.15;100.00
11672;BME280;5892;43.412;24.612;2023-09-19T03:52:25;100234.81;;;14.05;100.00
11672;BME280;5892;43.412;24.612;2023-09-19T03:54:52;100225.91;;;14.08;100.00
11672;BME280;5892;43.412;24.612;2023-09-19T03:57:19;100246.03;;;13.99;100.00
11672;BME280;5892;43.412;24.612;2023-09-19T03:59:46;100244.38;;;14.07;100.00
11672;BME280;5892;43.412;24.612;2023-09-19T04:02:14;100239.00;;;14.11;100.00
11672;BME280;5892;43.412;24.612;2023-09-19T04:04:47;100233.81;;;14.09;100.00
11672;BME280;5892;43.412;24.612;2023-09-19T04:07:14;100231.53;;;14.11;100.00
11672;BME280;5892;43.412;24.612;2023-09-19T04:09:41;100228.09;;;14.14;100.00
11672;BME280;5892;43.412;24.612;2023-09-19T04:12:08;100230.00;;;14.22;100.00
11672;BME280;5892;43.412;24.612;2023-09-19T04:14:35;100243.69;;;14.31;100.00
11672;BME280;5892;43.412;24.612;2023-09-19T04:17:02;100248.03;;;14.40;100.00
11672;BME280;5892;43.412;24.612;2023-09-19T04:19:30;100244.78;;;14.59;100.00
11672;BME280;5892;43.412;24.612;2023-09-19T04:21:57;100244.97;;;14.75;100.00
11672;BME280;5892;43.412;24.612;2023-09-19T04:24:23;100244.53;;;14.97;100.00
11672;BME280;5892;43.412;24.612;2023-09-19T04:26:50;100248.63;;;15.24;100.00
11672;BME280;5892;43.412;24.612;2023-09-19T04:29:18;100253.53;;;15.51;100.00
11672;BME280;5892;43.412;24.612;2023-09-19T04:31:45;100251.78;;;15.83;100.00
11672;BME280;5892;43.412;24.612;2023-09-19T04:34:12;100260.34;;;16.18;100.00
11672;BME280;5892;43.412;24.612;2023-09-19T04:36:43;100261.53;;;16.57;100.00
11672;BME280;5892;43.412;24.612;2023-09-19T04:39:10;100263.69;;;16.91;100.00
11672;BME280;5892;43.412;24.612;2023-09-19T04:41:38;100213.44;;;16.89;97.83
11672;BME280;5892;43.412;24.612;2023-09-19T04:44:06;100253.72;;;17.18;95.82
11672;BME280;5892;43.412;24.612;2023-09-19T04:46:33;100263.22;;;17.49;94.16
11672;BME280;5892;43.412;24.612;2023-09-19T04:49:00;100234.88;;;17.55;92.31
11672;BME280;5892;43.412;24.612;2023-09-19T04:51:27;100250.41;;;17.91;90.15
11672;BME280;5892;43.412;24.612;2023-09-19T04:54:01;100267.63;;;18.16;89.33
11672;BME280;5892;43.412;24.612;2023-09-19T04:56:28;100265.22;;;18.14;88.47
11672;BME280;5892;43.412;24.612;2023-09-19T04:58:56;100261.41;;;18.23;88.37
11672;BME280;5892;43.412;24.612;2023-09-19T05:01:23;100236.03;;;18.40;86.93
11672;BME280;5892;43.412;24.612;2023-09-19T05:03:50;100262.13;;;18.74;85.44
11672;BME280;5892;43.412;24.612;2023-09-19T05:06:18;100257.84;;;18.57;85.82
11672;BME280;5892;43.412;24.612;2023-09-19T05:08:46;100253.91;;;18.42;86.47
11672;BME280;5892;43.412;24.612;2023-09-19T05:11:18;100248.81;;;18.44;85.85
11672;BME280;5892;43.412;24.612;2023-09-19T05:13:47;100228.81;;;18.35;85.63
11672;BME280;5892;43.412;24.612;2023-09-19T05:16:15;100237.72;;;18.44;85.90
11672;BME280;5892;43.412;24.612;2023-09-19T05:18:43;100242.63;;;18.70;85.04
11672;BME280;5892;43.412;24.612;2023-09-19T05:21:10;100240.88;;;18.81;85.01
11672;BME280;5892;43.412;24.612;2023-09-19T05:23:37;100238.41;;;18.76;84.58
11672;BME280;5892;43.412;24.612;2023-09-19T05:26:04;100225.06;;;18.63;85.17
11672;BME280;5892;43.412;24.612;2023-09-19T05:28:32;100236.78;;;18.75;85.32
11672;BME280;5892;43.412;24.612;2023-09-19T05:31:00;100232.28;;;18.67;85.46
11672;BME280;5892;43.412;24.612;2023-09-19T05:33:28;100221.75;;;18.57;85.70
11672;BME280;5892;43.412;24.612;2023-09-19T05:35:57;100219.97;;;18.49;86.37
11672;BME280;5892;43.412;24.612;2023-09-19T05:38:24;100226.84;;;18.74;86.51
11672;BME280;5892;43.412;24.612;2023-09-19T05:40:52;100222.81;;;18.91;86.05
11672;BME280;5892;43.412;24.612;2023-09-19T05:43:19;100217.13;;;19.07;85.03
11672;BME280;5892;43.412;24.612;2023-09-19T05:45:48;100219.00;;;19.22;85.00
11672;BME280;5892;43.412;24.612;2023-09-19T05:48:17;100218.66;;;19.46;84.00
11672;BME280;5892;43.412;24.612;2023-09-19T05:50:46;100219.00;;;19.67;82.94
11672;BME280;5892;43.412;24.612;2023-09-19T05:53:14;100223.19;;;19.84;81.77
11672;BME280;5892;43.412;24.612;2023-09-19T05:55:41;100227.22;;;20.16;80.24
11672;BME280;5892;43.412;24.612;2023-09-19T05:58:08;100227.66;;;20.45;78.86
11672;BME280;5892;43.412;24.612;2023-09-19T06:00:35;100204.03;;;20.65;78.20
11672;BME280;5892;43.412;24.612;2023-09-19T06:03:04;100225.16;;;21.10;76.11
11672;BME280;5892;43.412;24.612;2023-09-19T06:05:30;100220.97;;;21.23;74.36
11672;BME280;5892;43.412;24.612;2023-09-19T06:07:58;100222.94;;;21.19;73.75
11672;BME280;5892;43.412;24.612;2023-09-19T06:10:25;100209.84;;;20.90;74.66
11672;BME280;5892;43.412;24.612;2023-09-19T06:12:53;100214.72;;;20.63;76.20
11672;BME280;5892;43.412;24.612;2023-09-19T06:15:21;100217.22;;;20.71;76.69
11672;BME280;5892;43.412;24.612;2023-09-19T06:17:49;100200.66;;;20.49;76.33
11672;BME280;5892;43.412;24.612;2023-09-19T06:20:17;100221.81;;;20.94;75.05
11672;BME280;5892;43.412;24.612;2023-09-19T06:22:45;100223.81;;;20.56;76.54
11672;BME280;5892;43.412;24.612;2023-09-19T06:25:13;100222.59;;;20.24;78.35
11672;BME280;5892;43.412;24.612;2023-09-19T06:27:44;100218.00;;;20.09;79.22
11672;BME280;5892;43.412;24.612;2023-09-19T06:30:11;100222.50;;;19.91;80.65
11672;BME280;5892;43.412;24.612;2023-09-19T06:32:39;100215.72;;;19.88;80.80
11672;BME280;5892;43.412;24.612;2023-09-19T06:35:09;100217.44;;;19.47;82.54
11672;BME280;5892;43.412;24.612;2023-09-19T06:37:38;100218.06;;;19.37;83.53
11672;BME280;5892;43.412;24.612;2023-09-19T06:40:08;100214.41;;;19.33;84.10
11672;BME280;5892;43.412;24.612;2023-09-19T06:42:39;100206.09;;;19.82;82.25
11672;BME280;5892;43.412;24.612;2023-09-19T06:45:07;100217.94;;;20.32;80.14
11672;BME280;5892;43.412;24.612;2023-09-19T06:47:37;100214.84;;;20.73;77.93
11672;BME280;5892;43.412;24.612;2023-09-19T06:50:04;100213.75;;;20.82;76.84
11672;BME280;5892;43.412;24.612;2023-09-19T06:52:39;100218.25;;;20.93;76.17
11672;BME280;5892;43.412;24.612;2023-09-19T06:55:08;100206.69;;;21.32;74.98
11672;BME280;5892;43.412;24.612;2023-09-19T06:57:37;100210.88;;;21.55;73.24
11672;BME280;5892;43.412;24.612;2023-09-19T07:00:07;100206.50;;;21.58;72.46
11672;BME280;5892;43.412;24.612;2023-09-19T07:02:38;100208.69;;;21.82;72.71
11672;BME280;5892;43.412;24.612;2023-09-19T07:05:06;100208.81;;;22.04;70.76
11672;BME280;5892;43.412;24.612;2023-09-19T07:07:33;100215.03;;;22.48;69.40
11672;BME280;5892;43.412;24.612;2023-09-19T07:10:02;100215.13;;;22.73;67.86
11672;BME280;5892;43.412;24.612;2023-09-19T07:12:29;100211.22;;;23.09;66.54
11672;BME280;5892;43.412;24.612;2023-09-19T07:14:55;100206.09;;;23.47;65.41
11672;BME280;5892;43.412;24.612;2023-09-19T07:17:22;100204.06;;;23.61;63.04
11672;BME280;5892;43.412;24.612;2023-09-19T07:19:49;100202.41;;;24.17;62.37
11672;BME280;5892;43.412;24.612;2023-09-19T07:22:16;100197.59;;;24.07;61.07
11672;BME280;5892;43.412;24.612;2023-09-19T07:24:43;100208.03;;;23.96;61.43
11672;BME280;5892;43.412;24.612;2023-09-19T07:27:11;100195.19;;;24.09;60.83
11672;BME280;5892;43.412;24.612;2023-09-19T07:29:38;100199.16;;;24.15;60.25
11672;BME280;5892;43.412;24.612;2023-09-19T07:32:05;100197.53;;;24.32;59.78
11672;BME280;5892;43.412;24.612;2023-09-19T07:34:33;100201.53;;;24.38;60.01
11672;BME280;5892;43.412;24.612;2023-09-19T07:37:00;100194.59;;;24.60;59.36
11672;BME280;5892;43.412;24.612;2023-09-19T07:39:28;100189.41;;;24.55;59.93
11672;BME280;5892;43.412;24.612;2023-09-19T07:41:55;100191.03;;;24.53;60.49
11672;BME280;5892;43.412;24.612;2023-09-19T07:44:23;100198.22;;;24.57;60.39
11672;BME280;5892;43.412;24.612;2023-09-19T07:46:51;100196.13;;;24.75;60.40
11672;BME280;5892;43.412;24.612;2023-09-19T07:49:19;100185.03;;;24.54;60.49
11672;BME280;5892;43.412;24.612;2023-09-19T07:51:45;100181.31;;;24.71;60.46
11672;BME280;5892;43.412;24.612;2023-09-19T07:54:13;100176.75;;;25.02;59.62
11672;BME280;5892;43.412;24.612;2023-09-19T07:56:40;100177.28;;;25.38;58.81
11672;BME280;5892;43.412;24.612;2023-09-19T07:59:07;100172.63;;;25.65;58.03
11672;BME280;5892;43.412;24.612;2023-09-19T08:01:36;100156.22;;;25.64;57.71
11672;BME280;5892;43.412;24.612;2023-09-19T08:04:07;100163.00;;;25.66;57.59
11672;BME280;5892;43.412;24.612;2023-09-19T08:06:34;100168.50;;;25.77;57.25
11672;BME280;5892;43.412;24.612;2023-09-19T08:09:01;100156.53;;;25.73;57.78
11672;BME280;5892;43.412;24.612;2023-09-19T08:11:33;100153.31;;;25.75;56.31
11672;BME280;5892;43.412;24.612;2023-09-19T08:14:11;100170.63;;;26.03;56.16
11672;BME280;5892;43.412;24.612;2023-09-19T08:16:39;100163.75;;;26.08;55.64
11672;BME280;5892;43.412;24.612;2023-09-19T08:19:08;100165.59;;;26.25;54.74
11672;BME280;5892;43.412;24.612;2023-09-19T08:21:36;100161.19;;;26.24;54.16
11672;BME280;5892;43.412;24.612;2023-09-19T08:24:04;100158.13;;;26.72;53.33
11672;BME280;5892;43.412;24.612;2023-09-19T08:26:31;100160.97;;;26.99;51.70
11672;BME280;5892;43.412;24.612;2023-09-19T08:28:58;100159.19;;;26.82;51.09
11672;BME280;5892;43.412;24.612;2023-09-19T08:31:31;100150.13;;;26.97;51.36
11672;BME280;5892;43.412;24.612;2023-09-19T08:33:59;100140.06;;;27.23;50.33
11672;BME280;5892;43.412;24.612;2023-09-19T08:36:26;100143.72;;;27.44;48.88
11672;BME280;5892;43.412;24.612;2023-09-19T08:38:52;100143.69;;;27.24;47.69
11672;BME280;5892;43.412;24.612;2023-09-19T08:41:19;100133.81;;;27.12;49.15
11672;BME280;5892;43.412;24.612;2023-09-19T08:43:46;100141.03;;;26.90;50.22
11672;BME280;5892;43.412;24.612;2023-09-19T08:46:16;100142.72;;;27.11;49.72
11672;BME280;5892;43.412;24.612;2023-09-19T08:48:51;100139.78;;;26.91;49.91
11672;BME280;5892;43.412;24.612;2023-09-19T08:51:27;100130.25;;;26.54;51.47
11672;BME280;5892;43.412;24.612;2023-09-19T08:54:01;100126.97;;;26.90;50.89
11672;BME280;5892;43.412;24.612;2023-09-19T08:56:31;100133.16;;;26.78;50.15
11672;BME280;5892;43.412;24.612;2023-09-19T08:59:00;100126.13;;;27.16;50.32
11672;BME280;5892;43.412;24.612;2023-09-19T09:01:29;100122.06;;;27.64;48.21
11672;BME280;5892;43.412;24.612;2023-09-19T09:03:59;100130.09;;;27.85;47.09
11672;BME280;5892;43.412;24.612;2023-09-19T09:06:28;100121.69;;;28.05;46.52
11672;BME280;5892;43.412;24.612;2023-09-19T09:08:58;100123.41;;;28.38;45.37
11672;BME280;5892;43.412;24.612;2023-09-19T09:11:25;100117.09;;;28.50;45.52
11672;BME280;5892;43.412;24.612;2023-09-19T09:13:53;100116.56;;;28.19;44.10
11672;BME280;5892;43.412;24.612;2023-09-19T09:16:20;100108.03;;;28.03;44.94
11672;BME280;5892;43.412;24.612;2023-09-19T09:18:51;100133.00;;;28.01;43.98
11672;BME280;5892;43.412;24.612;2023-09-19T09:21:21;100124.78;;;28.10;45.05
11672;BME280;5892;43.412;24.612;2023-09-19T09:23:48;100126.66;;;27.97;45.53
11672;BME280;5892;43.412;24.612;2023-09-19T09:26:16;100122.97;;;27.80;46.53
11672;BME280;5892;43.412;24.612;2023-09-19T09:28:45;100131.78;;;27.83;46.95
11672;BME280;5892;43.412;24.612;2023-09-19T09:31:22;100125.25;;;27.66;48.40
11672;BME280;5892;43.412;24.612;2023-09-19T09:33:53;100123.75;;;27.61;47.90
11672;BME280;5892;43.412;24.612;2023-09-19T09:36:35;100121.53;;;27.49;48.73
11672;BME280;5892;43.412;24.612;2023-09-19T09:39:02;100125.84;;;27.57;49.52
11672;BME280;5892;43.412;24.612;2023-09-19T09:41:42;100077.44;;;27.19;48.89
11672;BME280;5892;43.412;24.612;2023-09-19T09:44:24;100132.63;;;27.60;49.22
11672;BME280;5892;43.412;24.612;2023-09-19T09:46:52;100125.56;;;27.48;48.88
11672;BME280;5892;43.412;24.612;2023-09-19T09:49:47;100134.63;;;27.59;47.87
11672;BME280;5892;43.412;24.612;2023-09-19T09:52:21;100129.91;;;27.29;46.79
11672;BME280;5892;43.412;24.612;2023-09-19T09:54:59;100120.47;;;26.93;45.24
11672;BME280;5892;43.412;24.612;2023-09-19T09:57:27;100131.28;;;26.68;45.53
11672;BME280;5892;43.412;24.612;2023-09-19T09:59:56;100101.72;;;26.29;45.70
11672;BME280;5892;43.412;24.612;2023-09-19T10:02:27;100132.09;;;26.68;45.03
11672;BME280;5892;43.412;24.612;2023-09-19T10:04:58;100120.16;;;26.61;44.80
11672;BME280;5892;43.412;24.612;2023-09-19T10:07:36;100119.16;;;26.74;43.91
11672;BME280;5892;43.412;24.612;2023-09-19T10:10:07;100122.88;;;26.94;42.88
11672;BME280;5892;43.412;24.612;2023-09-19T10:12:45;100116.88;;;26.92;43.12
11672;BME280;5892;43.412;24.612;2023-09-19T10:15:15;100119.63;;;26.96;42.82
11672;BME280;5892;43.412;24.612;2023-09-19T10:17:43;100114.63;;;26.80;43.23
11672;BME280;5892;43.412;24.612;2023-09-19T10:20:15;100118.53;;;26.90;43.13
11672;BME280;5892;43.412;24.612;2023-09-19T10:23:05;100119.13;;;27.01;43.24
11672;BME280;5892;43.412;24.612;2023-09-19T10:25:37;100112.97;;;27.33;43.47
11672;BME280;5892;43.412;24.612;2023-09-19T10:28:06;100111.56;;;27.45;43.69
11672;BME280;5892;43.412;24.612;2023-09-19T10:30:37;100116.22;;;27.31;42.99
11672;BME280;5892;43.412;24.612;2023-09-19T10:33:10;100108.97;;;27.11;44.46
11672;BME280;5892;43.412;24.612;2023-09-19T10:35:38;100113.75;;;26.87;44.40
11672;BME280;5892;43.412;24.612;2023-09-19T10:38:10;100107.97;;;27.21;43.67
11672;BME280;5892;43.412;24.612;2023-09-19T10:40:38;100112.19;;;27.09;43.63
11672;BME280;5892;43.412;24.612;2023-09-19T10:43:12;100086.44;;;27.57;42.42
11672;BME280;5892;43.412;24.612;2023-09-19T10:45:41;100100.59;;;27.93;41.82
11672;BME280;5892;43.412;24.612;2023-09-19T10:48:10;100095.69;;;28.17;41.50
11672;BME280;5892;43.412;24.612;2023-09-19T10:50:43;100090.66;;;28.44;41.48
11672;BME280;5892;43.412;24.612;2023-09-19T10:53:13;100090.22;;;28.46;40.56
11672;BME280;5892;43.412;24.612;2023-09-19T10:55:48;100079.66;;;28.50;41.15
11672;BME280;5892;43.412;24.612;2023-09-19T10:58:25;100090.56;;;27.92;40.55
11672;BME280;5892;43.412;24.612;2023-09-19T11:00:55;100082.81;;;27.76;40.79
11672;BME280;5892;43.412;24.612;2023-09-19T11:03:23;100088.31;;;28.03;40.59
11672;BME280;5892;43.412;24.612;2023-09-19T11:06:12;100080.16;;;27.69;41.03
11672;BME280;5892;43.412;24.612;2023-09-19T11:11:46;100080.50;;;27.28;43.51
11672;BME280;5892;43.412;24.612;2023-09-19T11:14:38;100076.09;;;27.27;43.32
11672;BME280;5892;43.412;24.612;2023-09-19T11:17:30;100080.69;;;27.18;44.94
11672;BME280;5892;43.412;24.612;2023-09-19T11:20:24;100080.53;;;27.05;45.63
11672;BME280;5892;43.412;24.612;2023-09-19T11:23:18;100070.41;;;27.08;44.98
11672;BME280;5892;43.412;24.612;2023-09-19T11:25:50;100074.78;;;26.85;44.88
11672;BME280;5892;43.412;24.612;2023-09-19T11:28:32;100081.91;;;26.67;45.35
11672;BME280;5892;43.412;24.612;2023-09-19T11:30:59;100077.78;;;26.48;45.96
11672;BME280;5892;43.412;24.612;2023-09-19T11:33:46;100074.09;;;26.24;46.61
11672;BME280;5892;43.412;24.612;2023-09-19T11:36:15;100064.50;;;26.22;47.30
11672;BME280;5892;43.412;24.612;2023-09-19T11:39:00;100061.97;;;26.31;47.54
11672;BME280;5892;43.412;24.612;2023-09-19T11:41:41;100082.28;;;26.42;46.37
11672;BME280;5892;43.412;24.612;2023-09-19T11:44:33;100066.88;;;26.23;46.92
11672;BME280;5892;43.412;24.612;2023-09-19T11:47:04;100061.50;;;26.36;46.53
11672;BME280;5892;43.412;24.612;2023-09-19T11:49:32;100065.69;;;26.51;46.32
11672;BME280;5892;43.412;24.612;2023-09-19T11:52:01;100063.84;;;26.41;44.54
11672;BME280;5892;43.412;24.612;2023-09-19T11:54:31;100048.09;;;26.47;43.87
11672;BME280;5892;43.412;24.612;2023-09-19T11:57:00;100055.19;;;26.55;43.92
11672;BME280;5892;43.412;24.612;2023-09-19T11:59:28;100053.00;;;26.39;44.27
11672;BME280;5892;43.412;24.612;2023-09-19T12:01:56;100044.06;;;26.48;44.13
11672;BME280;5892;43.412;24.612;2023-09-19T12:04:35;100017.16;;;26.20;43.91
11672;BME280;5892;43.412;24.612;2023-09-19T12:07:04;100041.34;;;26.68;43.14
11672;BME280;5892;43.412;24.612;2023-09-19T12:09:31;100042.06;;;26.98;42.20
11672;BME280;5892;43.412;24.612;2023-09-19T12:12:00;100050.59;;;26.91;41.58
11672;BME280;5892;43.412;24.612;2023-09-19T12:14:27;100058.03;;;26.78;42.01
11672;BME280;5892;43.412;24.612;2023-09-19T12:16:54;100055.50;;;26.87;41.06
11672;BME280;5892;43.412;24.612;2023-09-19T12:19:22;100049.00;;;26.90;41.62
11672;BME280;5892;43.412;24.612;2023-09-19T12:21:59;100040.22;;;26.88;41.26
11672;BME280;5892;43.412;24.612;2023-09-19T12:24:29;100048.91;;;26.97;41.02
11672;BME280;5892;43.412;24.612;2023-09-19T12:27:02;100028.53;;;27.13;39.79
11672;BME280;5892;43.412;24.612;2023-09-19T12:29:31;100030.44;;;27.20;39.34
11672;BME280;5892;43.412;24.612;2023-09-19T12:31:59;100027.25;;;27.18;39.27
11672;BME280;5892;43.412;24.612;2023-09-19T12:34:30;100013.25;;;26.91;39.30
11672;BME280;5892;43.412;24.612;2023-09-19T12:37:04;100028.50;;;26.93;39.13
11672;BME280;5892;43.412;24.612;2023-09-19T12:39:37;100024.88;;;27.16;39.39
11672;BME280;5892;43.412;24.612;2023-09-19T12:42:05;100033.84;;;27.31;38.23
11672;BME280;5892;43.412;24.612;2023-09-19T12:44:35;100028.84;;;26.95;38.85
11672;BME280;5892;43.412;24.612;2023-09-19T12:47:09;100024.72;;;27.23;39.08
11672;BME280;5892;43.412;24.612;2023-09-19T12:49:36;100014.97;;;27.08;38.37
11672;BME280;5892;43.412;24.612;2023-09-19T12:52:03;100004.72;;;26.98;37.62
11672;BME280;5892;43.412;24.612;2023-09-19T12:54:38;100039.50;;;27.27;36.80
11672;BME280;5892;43.412;24.612;2023-09-19T12:57:07;100028.09;;;27.15;37.07
11672;BME280;5892;43.412;24.612;2023-09-19T12:59:33;100034.66;;;26.85;37.39
11672;BME280;5892;43.412;24.612;2023-09-19T13:02:05;100027.88;;;27.06;37.22
11672;BME280;5892;43.412;24.612;2023-09-19T13:04:39;100021.88;;;27.04;36.47
11672;BME280;5892;43.412;24.612;2023-09-19T13:07:41;100037.16;;;26.79;37.14